Time;durP1;ratioP1;P1;durP2;ratioP2;P2;SDS_P1;SDS_P2;PMS_P1;PMS_P2;Temp;Humidity;BMP_temperature;BMP_pressure;BME280_temperature;BME280_humidity;BME280_pressure;Samples;Min_cycle;Max_cycle;Signal;HPM_P1;HPM_P2
2022/10/17 00:01:36;;;;;;;3.20;1.23;;;14.40;99.90;;;;;;5068272;28;20074;-68
2022/10/17 00:04:02;;;;;;;6.63;1.70;;;14.40;99.90;;;;;;5058950;28;20046;-69
2022/10/17 00:06:27;;;;;;;4.13;1.38;;;14.40;99.90;;;;;;5054899;28;20048;-68
2022/10/17 00:08:53;;;;;;;5.57;1.27;;;14.40;99.90;;;;;;5071478;28;20430;-69
2022/10/17 00:11:20;;;;;;;3.45;1.38;;;14.40;99.90;;;;;;5071993;28;20162;-68
2022/10/17 00:13:47;;;;;;;6.93;1.63;;;14.40;99.90;;;;;;5074903;28;20044;-70
2022/10/17 00:16:12;;;;;;;5.13;1.77;;;14.40;99.90;;;;;;5035316;28;20123;-68
2022/10/17 00:18:38;;;;;;;6.13;1.70;;;14.30;99.90;;;;;;5051570;28;20135;-68
2022/10/17 00:21:04;;;;;;;7.03;2.17;;;14.30;99.90;;;;;;5071143;28;20047;-68
2022/10/17 00:23:29;;;;;;;4.07;1.70;;;14.30;99.90;;;;;;5054486;28;20051;-69
2022/10/17 00:26:03;;;;;;;3.53;1.52;;;14.30;99.90;;;;;;5069976;28;20044;-68
2022/10/17 00:28:29;;;;;;;5.88;1.58;;;14.30;99.90;;;;;;5056805;28;20125;-68
2022/10/17 00:30:59;;;;;;;6.95;1.70;;;14.30;99.90;;;;;;5071550;28;20425;-69
2022/10/17 00:33:26;;;;;;;3.13;1.70;;;14.30;99.90;;;;;;5070505;28;20040;-68
2022/10/17 00:36:21;;;;;;;4.68;1.63;;;14.30;99.90;;;;;;5054525;28;20376;-70
2022/10/17 00:38:49;;;;;;;4.70;1.80;;;14.30;99.90;;;;;;5069286;28;20047;-68
2022/10/17 00:41:17;;;;;;;5.65;1.90;;;14.30;99.90;;;;;;5041772;28;20044;-68
2022/10/17 00:44:06;;;;;;;4.80;1.80;;;14.30;99.90;;;;;;5054678;28;20131;-68
2022/10/17 00:46:38;;;;;;;3.50;1.70;;;14.30;99.90;;;;;;5071783;28;20167;-68
2022/10/17 00:49:08;;;;;;;3.80;1.60;;;14.30;99.90;;;;;;5054265;28;20140;-68
2022/10/17 00:51:45;;;;;;;4.60;1.95;;;14.30;99.90;;;;;;5071865;28;20356;-68
2022/10/17 00:54:12;;;;;;;9.45;1.98;;;14.40;99.90;;;;;;5055271;28;20127;-69
2022/10/17 00:56:39;;;;;;;5.90;1.50;;;14.40;99.90;;;;;;5049843;28;20048;-69
2022/10/17 00:59:06;;;;;;;5.28;1.50;;;14.40;99.90;;;;;;5051262;28;20615;-68
2022/10/17 01:01:31;;;;;;;1.85;1.30;;;14.50;99.90;;;;;;5043016;28;20052;-68
2022/10/17 01:03:57;;;;;;;3.63;1.42;;;14.40;99.90;;;;;;5071090;28;20105;-68
2022/10/17 01:06:23;;;;;;;2.92;1.65;;;14.40;99.90;;;;;;5087839;28;20667;-68
2022/10/17 01:08:48;;;;;;;4.97;1.88;;;14.50;99.90;;;;;;5067929;28;20048;-68
2022/10/17 01:11:36;;;;;;;5.18;1.90;;;14.40;99.90;;;;;;5051285;28;20071;-67
2022/10/17 01:14:08;;;;;;;;;;;14.30;99.90;;;;;;5085862;28;20048;-68
2022/10/17 01:16:37;;;;;;;4.20;1.95;;;14.30;99.90;;;;;;5071827;28;19922;-67
2022/10/17 01:19:10;;;;;;;4.35;1.80;;;14.30;99.90;;;;;;5054673;28;20574;-68
2022/10/17 01:21:54;;;;;;;4.97;1.70;;;14.30;99.90;;;;;;5055118;28;20123;-68
2022/10/17 01:24:42;;;;;;;5.88;1.70;;;14.30;99.90;;;;;;5054696;28;20078;-70
2022/10/17 01:27:13;;;;;;;6.28;1.70;;;14.30;99.90;;;;;;5072291;28;20051;-68
2022/10/17 01:30:10;;;;;;;4.20;1.80;;;14.30;99.90;;;;;;5072510;28;20044;-68
2022/10/17 01:32:44;;;;;;;6.55;1.92;;;14.20;99.90;;;;;;5072880;28;20065;-68
2022/10/17 01:35:21;;;;;;;2.92;1.83;;;14.20;99.90;;;;;;5054881;28;20048;-68
2022/10/17 01:38:16;;;;;;;4.80;1.42;;;14.20;99.90;;;;;;5062533;28;20063;-68
2022/10/17 01:40:54;;;;;;;8.18;2.30;;;14.10;99.90;;;;;;5069131;28;20484;-68
2022/10/17 01:43:26;;;;;;;;;;;14.10;99.90;;;;;;5078157;28;20048;-69
2022/10/17 01:46:03;;;;;;;5.20;1.77;;;14.10;99.90;;;;;;5073677;28;19921;-68
2022/10/17 01:48:35;;;;;;;3.50;1.60;;;14.00;99.90;;;;;;5054157;28;20246;-68
2022/10/17 01:51:10;;;;;;;3.42;2.15;;;14.00;99.90;;;;;;5057984;28;20101;-69
2022/10/17 01:53:41;;;;;;;4.22;2.00;;;14.00;99.90;;;;;;5072739;28;20157;-69
2022/10/17 01:56:07;;;;;;;3.30;1.60;;;14.10;99.90;;;;;;5056245;28;20052;-68
2022/10/17 01:58:41;;;;;;;5.65;2.30;;;14.10;99.90;;;;;;5074183;28;20362;-69
2022/10/17 02:01:07;;;;;;;3.55;2.40;;;14.10;99.90;;;;;;5039257;28;20363;-69
2022/10/17 02:03:33;;;;;;;4.03;1.70;;;14.10;99.90;;;;;;5057955;28;20055;-69
2022/10/17 02:05:59;;;;;;;4.32;1.90;;;14.20;99.90;;;;;;5053859;28;20043;-68
2022/10/17 02:08:42;;;;;;;5.70;1.98;;;14.10;99.90;;;;;;5053938;28;20078;-68
2022/10/17 02:11:18;;;;;;;3.53;2.20;;;14.20;99.90;;;;;;5070423;28;20074;-68
2022/10/17 02:14:15;;;;;;;2.75;2.08;;;14.20;99.90;;;;;;5067240;28;20135;-69
2022/10/17 02:16:48;;;;;;;4.78;1.70;;;14.20;99.90;;;;;;5054181;28;20093;-68
2022/10/17 02:19:48;;;;;;;4.00;1.73;;;14.10;99.90;;;;;;5053896;28;20068;-69
2022/10/17 02:22:43;;;;;;;4.13;2.13;;;14.10;99.90;;;;;;5070643;28;20044;-68
2022/10/17 02:25:19;;;;;;;4.30;2.35;;;14.10;99.90;;;;;;5066871;28;20159;-68
2022/10/17 02:28:11;;;;;;;4.15;2.58;;;14.10;99.90;;;;;;5038626;28;20099;-68
2022/10/17 02:30:51;;;;;;;3.88;2.72;;;14.10;99.90;;;;;;5063179;28;20060;-67
2022/10/17 02:33:22;;;;;;;4.60;3.00;;;14.20;99.90;;;;;;5042832;28;20056;-68
2022/10/17 02:35:50;;;;;;;6.15;2.90;;;14.20;99.90;;;;;;5053063;28;20049;-68
2022/10/17 02:38:15;;;;;;;4.10;2.97;;;14.30;99.90;;;;;;5037436;28;20048;-68
2022/10/17 02:40:41;;;;;;;4.57;3.25;;;14.30;99.90;;;;;;5043244;28;20051;-68
2022/10/17 02:43:07;;;;;;;4.65;3.00;;;14.40;99.90;;;;;;5053531;28;20373;-69
2022/10/17 02:45:34;;;;;;;8.23;3.22;;;14.40;99.90;;;;;;5053949;28;20477;-68
2022/10/17 02:48:06;;;;;;;4.00;3.23;;;14.50;99.90;;;;;;5069923;28;20611;-69
2022/10/17 02:50:56;;;;;;;6.70;3.20;;;14.50;99.90;;;;;;5052712;28;20293;-69
2022/10/17 02:53:29;;;;;;;3.78;2.92;;;14.50;99.90;;;;;;5070103;28;20060;-69
2022/10/17 02:55:57;;;;;;;5.40;2.95;;;14.50;99.90;;;;;;5082269;28;20100;-69
2022/10/17 02:58:26;;;;;;;5.13;3.00;;;14.60;99.90;;;;;;5073356;28;20412;-67
2022/10/17 03:00:52;;;;;;;7.43;3.35;;;14.60;99.90;;;;;;5073278;28;20081;-69
2022/10/17 03:03:23;;;;;;;5.43;3.08;;;14.60;99.90;;;;;;5055747;28;20052;-69
2022/10/17 03:05:49;;;;;;;5.88;3.35;;;14.70;99.90;;;;;;5073247;28;20044;-70
2022/10/17 03:08:15;;;;;;;6.10;3.30;;;14.70;99.90;;;;;;5085140;28;20887;-68
2022/10/17 03:10:40;;;;;;;4.97;2.88;;;14.70;99.90;;;;;;5052834;28;20070;-69
2022/10/17 03:13:06;;;;;;;3.53;2.55;;;14.80;99.90;;;;;;5070100;28;20119;-68
2022/10/17 03:15:32;;;;;;;5.15;2.70;;;14.80;99.90;;;;;;5072288;28;20044;-68
2022/10/17 03:17:57;;;;;;;5.07;2.97;;;14.80;99.90;;;;;;5073361;28;20133;-69
2022/10/17 03:20:23;;;;;;;6.25;2.85;;;14.90;99.90;;;;;;5055156;28;20048;-68
2022/10/17 03:22:49;;;;;;;4.93;2.72;;;14.90;99.90;;;;;;5072784;28;20052;-68
2022/10/17 03:25:15;;;;;;;5.13;2.72;;;14.90;99.90;;;;;;5075657;28;20113;-69
2022/10/17 03:27:40;;;;;;;4.93;2.88;;;14.90;99.90;;;;;;5090449;28;20146;-68
2022/10/17 03:30:08;;;;;;;5.47;2.90;;;15.00;99.90;;;;;;5066303;28;20053;-69
2022/10/17 03:32:34;;;;;;;4.60;2.55;;;15.00;99.90;;;;;;5052439;28;20052;-68
2022/10/17 03:35:00;;;;;;;3.40;2.70;;;15.00;99.90;;;;;;5035681;28;20458;-68
2022/10/17 03:37:25;;;;;;;5.38;2.92;;;14.90;99.90;;;;;;5052013;28;20343;-68
2022/10/17 03:39:51;;;;;;;5.20;3.10;;;15.00;99.90;;;;;;5068388;28;20048;-68
2022/10/17 03:42:17;;;;;;;4.95;2.90;;;15.00;99.90;;;;;;5089677;28;20131;-69
2022/10/17 03:44:43;;;;;;;5.00;2.85;;;15.00;99.90;;;;;;5088252;28;20090;-68
2022/10/17 03:47:08;;;;;;;5.32;2.88;;;15.00;99.90;;;;;;5085201;28;20131;-69
2022/10/17 03:49:34;;;;;;;4.30;3.15;;;15.00;99.90;;;;;;5052133;28;20641;-68
2022/10/17 03:52:00;;;;;;;4.10;2.88;;;15.00;99.90;;;;;;5068715;28;20052;-68
2022/10/17 03:54:25;;;;;;;5.82;3.00;;;15.00;99.90;;;;;;5035467;28;20051;-68
2022/10/17 03:56:51;;;;;;;4.53;3.17;;;15.00;99.90;;;;;;5085702;28;20043;-68
2022/10/17 03:59:17;;;;;;;4.32;3.10;;;15.00;99.90;;;;;;5069019;28;20048;-68
2022/10/17 04:01:43;;;;;;;4.78;3.15;;;14.90;99.90;;;;;;5060077;28;20047;-68
2022/10/17 04:04:09;;;;;;;5.53;3.80;;;15.00;99.90;;;;;;5069375;28;20080;-69
2022/10/17 04:06:35;;;;;;;7.25;3.70;;;14.90;99.90;;;;;;5068581;28;20046;-68
2022/10/17 04:09:01;;;;;;;4.10;3.05;;;14.90;99.90;;;;;;5068399;28;20052;-69
2022/10/17 04:11:26;;;;;;;6.43;4.00;;;14.90;99.90;;;;;;5078009;28;20036;-68
2022/10/17 04:13:53;;;;;;;6.05;3.80;;;14.90;99.90;;;;;;5071477;28;20040;-69
2022/10/17 04:16:19;;;;;;;6.57;3.63;;;14.90;99.90;;;;;;5088020;28;20127;-68
2022/10/17 04:18:45;;;;;;;4.85;2.92;;;14.90;99.90;;;;;;5066871;28;20108;-68
2022/10/17 04:21:11;;;;;;;5.78;3.47;;;14.90;99.90;;;;;;5051567;28;20513;-68
2022/10/17 04:23:37;;;;;;;5.88;3.50;;;14.90;99.90;;;;;;5053291;28;20198;-68
2022/10/17 04:26:03;;;;;;;6.90;3.30;;;14.90;99.90;;;;;;5079762;28;20044;-68
2022/10/17 04:28:28;;;;;;;6.40;3.45;;;14.90;99.90;;;;;;5101032;28;20086;-69
2022/10/17 04:31:05;;;;;;;5.28;3.00;;;14.90;99.90;;;;;;5071310;28;20417;-69
2022/10/17 04:33:31;;;;;;;4.95;3.42;;;14.90;99.90;;;;;;5051595;28;20044;-68
2022/10/17 04:36:00;;;;;;;4.55;3.35;;;14.90;99.90;;;;;;5056791;28;20355;-69
2022/10/17 04:38:26;;;;;;;4.85;3.28;;;14.80;99.90;;;;;;5051799;28;20044;-69
2022/10/17 04:40:52;;;;;;;4.78;3.30;;;14.80;99.90;;;;;;5065895;28;20089;-69
2022/10/17 04:43:17;;;;;;;4.60;3.33;;;14.80;99.90;;;;;;5088384;28;20048;-68
2022/10/17 04:45:43;;;;;;;6.45;3.50;;;14.80;99.90;;;;;;5054354;28;20090;-68
2022/10/17 04:48:09;;;;;;;6.53;3.50;;;14.80;99.90;;;;;;5073840;28;20472;-68
2022/10/17 04:50:35;;;;;;;4.88;2.92;;;14.80;99.90;;;;;;5092125;28;20127;-68
2022/10/17 04:53:00;;;;;;;5.43;3.45;;;14.80;99.90;;;;;;5089081;28;20500;-67
2022/10/17 04:55:26;;;;;;;4.10;3.20;;;14.80;99.90;;;;;;5062892;28;20054;-68
2022/10/17 04:57:52;;;;;;;6.43;3.70;;;14.80;99.90;;;;;;5048234;28;20041;-68
2022/10/17 05:00:19;;;;;;;5.70;2.83;;;14.90;99.90;;;;;;5034334;28;20155;-73
2022/10/17 05:02:45;;;;;;;5.07;3.67;;;14.90;99.90;;;;;;5040726;28;20052;-73
2022/10/17 05:05:11;;;;;;;6.55;3.63;;;14.80;99.90;;;;;;5058438;28;20485;-73
2022/10/17 05:07:40;;;;;;;4.65;2.92;;;14.80;99.90;;;;;;5069249;28;20151;-73
2022/10/17 05:10:06;;;;;;;5.38;3.08;;;14.80;99.90;;;;;;5044450;28;20040;-73
2022/10/17 05:12:32;;;;;;;4.70;3.20;;;14.80;99.90;;;;;;5080488;28;20040;-73
2022/10/17 05:14:58;;;;;;;5.28;3.50;;;14.80;99.90;;;;;;5054866;28;20040;-74
2022/10/17 05:17:23;;;;;;;5.78;3.28;;;14.80;99.90;;;;;;5065051;28;20365;-72
2022/10/17 05:19:49;;;;;;;4.63;3.10;;;14.80;99.90;;;;;;5075752;28;20492;-74
2022/10/17 05:22:15;;;;;;;6.13;3.42;;;14.80;99.90;;;;;;5084265;28;20085;-73
2022/10/17 05:24:41;;;;;;;6.10;3.60;;;14.80;99.90;;;;;;5089121;28;20098;-72
2022/10/17 05:27:07;;;;;;;5.95;3.78;;;14.90;99.90;;;;;;5057570;28;20087;-72
2022/10/17 05:29:33;;;;;;;6.18;3.42;;;14.80;99.90;;;;;;5084065;28;20048;-73
2022/10/17 05:31:59;;;;;;;7.05;3.38;;;14.80;99.90;;;;;;5051653;28;20040;-75
2022/10/17 05:34:25;;;;;;;5.65;3.63;;;14.70;99.90;;;;;;5037076;28;20036;-73
2022/10/17 05:36:51;;;;;;;7.70;3.45;;;14.70;99.90;;;;;;5054438;28;20051;-73
2022/10/17 05:39:18;;;;;;;5.85;3.50;;;14.70;99.90;;;;;;5073801;28;20132;-72
2022/10/17 05:41:45;;;;;;;6.85;3.70;;;14.70;99.90;;;;;;5086763;28;20071;-73
2022/10/17 05:44:12;;;;;;;6.85;3.65;;;14.70;99.90;;;;;;5053849;28;20060;-72
2022/10/17 05:46:38;;;;;;;7.03;4.05;;;14.70;99.90;;;;;;5057339;28;20511;-73
2022/10/17 05:49:04;;;;;;;4.90;3.72;;;14.70;99.90;;;;;;5088957;28;20052;-72
2022/10/17 05:51:30;;;;;;;7.70;3.85;;;14.70;99.90;;;;;;5053482;28;20051;-74
2022/10/17 05:53:56;;;;;;;7.65;4.10;;;14.70;99.90;;;;;;5052569;28;20044;-74
2022/10/17 05:56:22;;;;;;;7.03;4.18;;;14.60;99.90;;;;;;5053631;28;20045;-74
2022/10/17 05:58:48;;;;;;;6.20;3.95;;;14.60;99.90;;;;;;5069217;28;20076;-74
2022/10/17 06:01:14;;;;;;;8.45;3.90;;;14.60;99.90;;;;;;5090121;28;20120;-73
2022/10/17 06:03:40;;;;;;;6.03;4.03;;;14.60;99.90;;;;;;5073523;28;20052;-73
2022/10/17 06:06:07;;;;;;;8.35;3.95;;;14.60;99.90;;;;;;5091375;28;20419;-73
2022/10/17 06:08:33;;;;;;;6.35;3.92;;;14.60;99.90;;;;;;5055367;28;20077;-73
2022/10/17 06:10:59;;;;;;;7.97;3.83;;;14.60;99.90;;;;;;5086230;28;20052;-73
2022/10/17 06:13:25;;;;;;;6.30;3.80;;;14.60;99.90;;;;;;5053725;28;20044;-74
2022/10/17 06:15:50;;;;;;;4.45;3.63;;;14.60;99.90;;;;;;5052974;28;20481;-74
2022/10/17 06:18:17;;;;;;;6.60;3.70;;;14.70;99.90;;;;;;5036256;28;20078;-73
2022/10/17 06:20:42;;;;;;;6.38;3.65;;;14.60;99.90;;;;;;5053303;28;20074;-74
2022/10/17 06:23:08;;;;;;;8.40;3.45;;;14.70;99.90;;;;;;5085603;28;20060;-75
2022/10/17 06:25:35;;;;;;;8.07;3.40;;;14.70;99.90;;;;;;5057557;28;20189;-76
2022/10/17 06:28:01;;;;;;;5.82;3.45;;;14.80;99.90;;;;;;5072344;28;20039;-75
2022/10/17 06:30:26;;;;;;;5.05;3.15;;;14.80;99.90;;;;;;5089820;28;20377;-74
2022/10/17 06:32:52;;;;;;;5.88;4.10;;;14.80;99.90;;;;;;5072473;28;20039;-75
2022/10/17 06:35:18;;;;;;;5.72;3.22;;;14.90;99.90;;;;;;5072257;28;20469;-72
2022/10/17 06:37:44;;;;;;;5.15;3.25;;;14.90;99.90;;;;;;5077686;28;20071;-73
2022/10/17 06:40:11;;;;;;;7.32;3.50;;;14.90;99.90;;;;;;5072378;28;20465;-73
2022/10/17 06:42:40;;;;;;;5.50;3.45;;;14.90;99.90;;;;;;5073207;28;20048;-73
2022/10/17 06:45:07;;;;;;;4.20;2.95;;;14.90;99.90;;;;;;5055903;28;20059;-74
2022/10/17 06:47:33;;;;;;;8.50;3.75;;;14.90;99.90;;;;;;5071975;28;20154;-74
2022/10/17 06:49:58;;;;;;;4.47;2.85;;;14.90;99.90;;;;;;5072528;28;20048;-76
2022/10/17 06:52:24;;;;;;;7.57;3.22;;;15.00;99.90;;;;;;5088694;28;20074;-74
2022/10/17 06:54:53;;;;;;;5.60;2.97;;;15.00;99.90;;;;;;5072546;28;20044;-75
2022/10/17 06:57:18;;;;;;;5.35;3.20;;;15.00;99.90;;;;;;5085245;28;20453;-75
2022/10/17 06:59:44;;;;;;;4.68;3.00;;;15.10;99.90;;;;;;5052164;28;20044;-74
2022/10/17 07:02:10;;;;;;;6.80;3.13;;;15.10;99.90;;;;;;5068807;28;20079;-74
2022/10/17 07:04:36;;;;;;;6.38;3.33;;;15.20;99.90;;;;;;5068866;28;20131;-74
2022/10/17 07:07:02;;;;;;;7.00;4.00;;;15.20;99.90;;;;;;5071486;28;20060;-74
2022/10/17 07:09:31;;;;;;;5.68;3.53;;;15.30;99.90;;;;;;5054796;28;20473;-74
2022/10/17 07:11:58;;;;;;;4.65;2.88;;;15.30;99.90;;;;;;5071695;28;20039;-74
2022/10/17 07:14:30;;;;;;;6.72;3.33;;;15.30;99.90;;;;;;5055364;28;20427;-75
2022/10/17 07:16:58;;;;;;;7.40;3.22;;;15.40;99.90;;;;;;5072679;28;20048;-73
2022/10/17 07:19:24;;;;;;;7.32;3.70;;;15.40;99.90;;;;;;5055691;28;20056;-74
2022/10/17 07:21:50;;;;;;;4.70;3.10;;;15.50;99.90;;;;;;5084793;28;20386;-73
2022/10/17 07:24:16;;;;;;;5.00;2.92;;;15.50;99.90;;;;;;5069383;28;20044;-73
2022/10/17 07:26:41;;;;;;;6.82;2.90;;;15.50;99.90;;;;;;5073079;28;20048;-74
2022/10/17 07:29:08;;;;;;;6.63;3.03;;;15.60;99.90;;;;;;5089964;28;20051;-73
2022/10/17 07:31:33;;;;;;;6.30;3.08;;;15.60;99.90;;;;;;5055377;28;20120;-74
2022/10/17 07:33:59;;;;;;;6.90;2.78;;;15.70;99.90;;;;;;5089157;28;20048;-75
2022/10/17 07:36:25;;;;;;;5.18;3.25;;;15.70;99.90;;;;;;5071390;28;20043;-74
2022/10/17 07:38:51;;;;;;;4.80;2.97;;;15.70;99.90;;;;;;5089563;28;20040;-74
2022/10/17 07:41:18;;;;;;;6.55;3.08;;;15.70;99.90;;;;;;5071430;28;20044;-75
2022/10/17 07:43:44;;;;;;;5.63;2.63;;;15.80;99.90;;;;;;5054236;28;20125;-74
2022/10/17 07:46:10;;;;;;;5.93;3.35;;;15.80;99.90;;;;;;5055149;28;20087;-75
2022/10/17 07:48:37;;;;;;;6.47;2.88;;;15.90;99.90;;;;;;5054584;28;20122;-75
2022/10/17 07:51:04;;;;;;;6.97;3.17;;;15.90;99.90;;;;;;5071545;28;20046;-75
2022/10/17 07:53:29;;;;;;;6.22;2.80;;;15.90;99.90;;;;;;5054121;28;20043;-74
2022/10/17 07:55:55;;;;;;;8.25;3.40;;;15.90;99.90;;;;;;5071335;28;20457;-74
2022/10/17 07:58:21;;;;;;;6.68;2.88;;;16.00;99.90;;;;;;5052171;28;20040;-74
2022/10/17 08:00:47;;;;;;;3.70;2.80;;;16.00;99.90;;;;;;5034593;28;20222;-74
2022/10/17 08:03:13;;;;;;;7.00;3.53;;;16.10;99.90;;;;;;5034861;28;20139;-74
2022/10/17 08:05:39;;;;;;;6.40;3.30;;;16.10;99.90;;;;;;5068208;28;20197;-77
2022/10/17 08:08:05;;;;;;;5.80;2.90;;;16.20;99.90;;;;;;5060105;28;20059;-73
2022/10/17 08:10:30;;;;;;;6.93;3.10;;;16.30;99.90;;;;;;5051067;28;20047;-73
2022/10/17 08:12:56;;;;;;;6.70;2.85;;;16.40;99.90;;;;;;5051533;28;20040;-74
2022/10/17 08:15:23;;;;;;;5.90;2.88;;;16.40;99.90;;;;;;5050762;28;20036;-74
2022/10/17 08:17:49;;;;;;;6.68;3.13;;;16.60;99.90;;;;;;5051335;28;20374;-74
2022/10/17 08:20:15;;;;;;;11.10;3.40;;;16.60;99.90;;;;;;5067853;28;20051;-75
2022/10/17 08:22:40;;;;;;;3.95;2.50;;;16.70;99.90;;;;;;5050274;28;20055;-75
2022/10/17 08:25:08;;;;;;;4.97;2.80;;;16.80;99.90;;;;;;5070005;28;20116;-74
2022/10/17 08:27:34;;;;;;;7.03;2.75;;;16.80;99.90;;;;;;5054753;28;20427;-75
2022/10/17 08:30:00;;;;;;;5.38;2.90;;;16.90;99.90;;;;;;5083618;28;20044;-75
2022/10/17 08:32:26;;;;;;;9.25;2.95;;;16.90;99.90;;;;;;5037647;28;20040;-75
2022/10/17 08:34:52;;;;;;;7.15;3.28;;;16.90;99.90;;;;;;5071172;28;20054;-75
2022/10/17 08:37:18;;;;;;;6.63;3.35;;;17.00;99.90;;;;;;5087580;28;20040;-75
2022/10/17 08:39:44;;;;;;;4.63;2.88;;;17.10;99.90;;;;;;5053450;28;20812;-74
2022/10/17 08:42:45;;;;;;;4.43;3.00;;;17.10;99.90;;;;;;5071185;28;20056;-74
2022/10/17 08:45:23;;;;;;;7.30;2.95;;;17.20;99.90;;;;;;5066340;28;20055;-74
2022/10/17 08:48:09;;;;;;;;;;;17.20;99.90;;;;;;5034339;28;20131;-72
2022/10/17 08:50:45;;;;;;;6.28;3.00;;;17.30;99.90;;;;;;5047672;28;20284;-74
2022/10/17 08:53:56;;;;;;;7.13;2.50;;;17.40;99.90;;;;;;5067096;28;20583;-73
2022/10/17 08:56:26;;;;;;;7.13;3.17;;;17.40;99.90;;;;;;5068799;28;20411;-73
2022/10/17 08:58:52;;;;;;;4.93;2.65;;;17.50;99.90;;;;;;5054129;28;20040;-72
2022/10/17 09:01:24;;;;;;;5.75;3.03;;;17.60;99.90;;;;;;5054017;28;20557;-72
2022/10/17 09:04:14;;;;;;;5.47;3.03;;;17.70;99.90;;;;;;5087748;28;20047;-72
2022/10/17 09:06:52;;;;;;;9.88;3.10;;;17.70;99.90;;;;;;5082715;28;20060;-72
2022/10/17 09:09:38;;;;;;;6.82;2.85;;;17.80;99.90;;;;;;5067246;28;20079;-72
2022/10/17 09:12:21;;;;;;;6.18;2.80;;;18.00;99.90;;;;;;5052700;28;20126;-72
2022/10/17 09:14:57;;;;;;;4.45;2.58;;;18.10;99.90;;;;;;5078147;28;20125;-72
2022/10/17 09:17:51;;;;;;;6.45;2.78;;;18.20;99.90;;;;;;5070093;28;20482;-72
2022/10/17 09:20:22;;;;;;;5.30;2.60;;;18.30;99.90;;;;;;5088204;28;20055;-72
2022/10/17 09:22:54;;;;;;;5.35;2.78;;;18.50;99.90;;;;;;5053623;28;20048;-72
2022/10/17 09:25:20;;;;;;;7.00;3.13;;;18.60;99.90;;;;;;5085303;28;20052;-72
2022/10/17 09:28:08;;;;;;;7.63;2.72;;;18.70;99.90;;;;;;5033974;28;20396;-73
2022/10/17 09:30:38;;;;;;;6.93;2.50;;;18.80;99.90;;;;;;5066522;28;20143;-72
2022/10/17 09:33:24;;;;;;;10.35;2.80;;;19.00;99.90;;;;;;5066849;28;20314;-73
2022/10/17 09:35:49;;;;;;;12.07;3.05;;;19.00;99.90;;;;;;5055945;28;20040;-73
2022/10/17 09:38:17;;;;;;;7.50;2.75;;;19.10;99.90;;;;;;5057068;28;20078;-72
2022/10/17 09:40:44;;;;;;;3.88;2.22;;;19.20;99.90;;;;;;5056683;28;20071;-72
2022/10/17 09:43:11;;;;;;;6.50;2.83;;;19.30;99.90;;;;;;5056624;28;20389;-72
2022/10/17 09:45:55;;;;;;;6.72;2.50;;;19.40;99.90;;;;;;5056910;28;20052;-72
2022/10/17 09:48:27;;;;;;;7.15;2.60;;;19.50;99.90;;;;;;5076665;28;20112;-72
2022/10/17 09:50:53;;;;;;;4.80;2.55;;;19.60;99.90;;;;;;5073515;28;20151;-72
2022/10/17 09:53:36;;;;;;;4.22;2.50;;;19.60;99.90;;;;;;5072848;28;20548;-72
2022/10/17 09:56:06;;;;;;;7.00;3.13;;;19.70;99.90;;;;;;5090507;28;20043;-73
2022/10/17 09:58:59;;;;;;;5.93;2.70;;;19.70;99.90;;;;;;5070090;28;20044;-73
2022/10/17 10:01:30;;;;;;;7.30;2.70;;;19.70;99.90;;;;;;5090018;28;20050;-72
2022/10/17 10:04:12;;;;;;;7.85;2.55;;;19.80;99.90;;;;;;5073207;28;20044;-71
2022/10/17 10:06:39;;;;;;;7.38;2.63;;;19.80;99.90;;;;;;5037013;28;20390;-73
2022/10/17 10:09:05;;;;;;;4.95;2.40;;;19.90;99.90;;;;;;5036542;28;20076;-73
2022/10/17 10:11:49;;;;;;;4.13;2.40;;;19.90;99.90;;;;;;5036484;28;20045;-72
2022/10/17 10:14:22;;;;;;;6.30;2.70;;;20.00;99.90;;;;;;5075856;28;20461;-72
2022/10/17 10:16:48;;;;;;;5.20;2.45;;;20.10;99.90;;;;;;5073480;28;20352;-72
2022/10/17 10:19:33;;;;;;;7.57;2.40;;;20.20;99.90;;;;;;5072627;28;20055;-73
2022/10/17 10:22:01;;;;;;;8.85;2.33;;;20.30;99.90;;;;;;5073750;28;20048;-72
2022/10/17 10:24:27;;;;;;;7.15;2.30;;;20.40;99.90;;;;;;5090198;28;20048;-72
2022/10/17 10:26:54;;;;;;;5.63;2.53;;;20.60;99.90;;;;;;5074858;28;20381;-72
2022/10/17 10:29:36;;;;;;;6.18;2.15;;;20.80;98.70;;;;;;5055348;28;20283;-72
2022/10/17 10:32:22;;;;;;;4.15;2.47;;;20.90;98.20;;;;;;5089848;28;20557;-72
2022/10/17 10:34:57;;;;;;;3.97;2.40;;;21.00;98.60;;;;;;5072849;28;20047;-72
2022/10/17 10:37:27;;;;;;;6.80;2.35;;;21.00;98.40;;;;;;5089806;28;20043;-73
2022/10/17 10:39:55;;;;;;;6.28;2.50;;;20.90;98.00;;;;;;5072682;28;20055;-73
2022/10/17 10:42:25;;;;;;;4.80;2.58;;;20.80;98.20;;;;;;5055301;28;20047;-73
2022/10/17 10:44:51;;;;;;;7.47;2.40;;;20.80;98.50;;;;;;5071777;28;20067;-73
2022/10/17 10:47:21;;;;;;;7.07;2.38;;;20.80;98.40;;;;;;5072649;28;20052;-74
2022/10/17 10:49:48;;;;;;;8.80;2.70;;;21.20;98.20;;;;;;5071115;28;20116;-72
2022/10/17 10:52:26;;;;;;;5.57;2.20;;;21.60;96.90;;;;;;5054929;28;20048;-72
2022/10/17 10:55:13;;;;;;;3.17;2.08;;;21.80;96.60;;;;;;5089148;28;20071;-73
2022/10/17 10:57:39;;;;;;;4.65;2.30;;;21.70;96.40;;;;;;5070328;28;20067;-74
2022/10/17 11:00:16;;;;;;;6.35;2.30;;;21.70;96.10;;;;;;5055016;28;20083;-73
2022/10/17 11:02:52;;;;;;;7.30;2.75;;;21.90;95.40;;;;;;5082523;28;20083;-72
2022/10/17 11:05:34;;;;;;;2.90;1.85;;;22.10;93.80;;;;;;5056680;28;20042;-72
2022/10/17 11:08:08;;;;;;;6.10;2.33;;;22.10;93.20;;;;;;5073687;28;20052;-72
2022/10/17 11:10:46;;;;;;;6.22;2.60;;;22.00;93.60;;;;;;5068731;28;20056;-73
2022/10/17 11:13:25;;;;;;;5.53;2.17;;;21.90;94.10;;;;;;5053378;28;20092;-73
2022/10/17 11:16:20;;;;;;;7.70;2.47;;;21.90;95.00;;;;;;5035689;28;20036;-73
2022/10/17 11:19:27;;;;;;;7.30;2.50;;;21.80;94.60;;;;;;5052752;28;20540;-72
2022/10/17 11:22:08;;;;;;;4.50;2.20;;;21.70;95.30;;;;;;5063916;28;20463;-72
2022/10/17 11:24:41;;;;;;;4.90;2.50;;;21.70;95.40;;;;;;5036438;28;20106;-72
2022/10/17 11:27:07;;;;;;;12.65;2.83;;;21.80;94.50;;;;;;5067149;28;20035;-72
2022/10/17 11:29:39;;;;;;;4.88;2.53;;;21.90;94.40;;;;;;5062002;28;20054;-72
2022/10/17 11:32:37;;;;;;;8.07;2.30;;;21.80;94.00;;;;;;5071893;28;20105;-74
2022/10/17 11:35:22;;;;;;;8.15;2.40;;;21.90;94.20;;;;;;5091428;28;20591;-72
2022/10/17 11:38:01;;;;;;;4.43;2.42;;;21.80;93.50;;;;;;5063491;28;20044;-73
2022/10/17 11:40:32;;;;;;;6.05;2.10;;;21.80;93.50;;;;;;5067837;28;20091;-72
2022/10/17 11:43:20;;;;;;;5.75;2.30;;;22.10;93.50;;;;;;5051444;28;20048;-73
2022/10/17 11:45:47;;;;;;;;;;;22.30;92.10;;;;;;5056007;28;20086;-73
2022/10/17 11:48:16;;;;;;;10.25;2.53;;;22.40;92.60;;;;;;5068054;28;20018;-72
2022/10/17 11:50:48;;;;;;;7.85;2.47;;;22.60;92.00;;;;;;5087386;28;20500;-74
2022/10/17 11:53:25;;;;;;;7.70;2.60;;;22.40;92.60;;;;;;5071231;28;20044;-72
2022/10/17 11:55:51;;;;;;;5.28;2.03;;;22.40;92.30;;;;;;5071272;28;20056;-72
2022/10/17 11:58:39;;;;;;;5.05;2.03;;;22.50;92.20;;;;;;5079112;28;20043;-72
2022/10/17 12:01:33;;;;;;;4.88;2.20;;;22.70;92.00;;;;;;5067798;28;20361;-73
2022/10/17 12:04:01;;;;;;;4.70;2.30;;;23.00;91.50;;;;;;5074695;28;20043;-73
2022/10/17 12:06:40;;;;;;;5.18;2.50;;;23.00;90.90;;;;;;5088812;28;20044;-73
2022/10/17 12:09:29;;;;;;;7.93;2.50;;;23.00;91.30;;;;;;5071895;28;20040;-73
2022/10/17 12:11:58;;;;;;;6.20;2.53;;;23.00;90.40;;;;;;5088586;28;20174;-73
2022/10/17 12:14:40;;;;;;;6.95;2.33;;;22.90;90.50;;;;;;5053511;28;20046;-73
2022/10/17 12:17:29;;;;;;;8.30;2.90;;;23.20;91.60;;;;;;5085537;28;20738;-72
2022/10/17 12:20:23;;;;;;;6.95;2.67;;;23.40;90.30;;;;;;5068363;28;20407;-72
2022/10/17 12:22:50;;;;;;;8.25;2.60;;;23.80;90.40;;;;;;5068717;28;20432;-73
2022/10/17 12:25:31;;;;;;;6.75;2.30;;;24.00;88.70;;;;;;5051089;28;20357;-73
2022/10/17 12:28:31;;;;;;;6.32;2.30;;;23.70;90.30;;;;;;5063548;28;20126;-73
2022/10/17 12:31:02;;;;;;;9.55;2.80;;;23.30;89.40;;;;;;5070857;28;20484;-72
2022/10/17 12:33:37;;;;;;;13.65;2.92;;;23.50;90.50;;;;;;5088511;28;20052;-72
2022/10/17 12:36:21;;;;;;;6.88;2.90;;;23.60;90.30;;;;;;5054330;28;20093;-71
2022/10/17 12:39:02;;;;;;;7.90;2.40;;;23.30;90.20;;;;;;5067033;28;20477;-72
2022/10/17 12:41:51;;;;;;;10.05;2.63;;;23.20;90.70;;;;;;5068706;28;20442;-72
2022/10/17 12:44:20;;;;;;;6.28;2.22;;;23.10;91.00;;;;;;5064851;28;20044;-72
2022/10/17 12:47:09;;;;;;;6.78;2.22;;;22.90;90.50;;;;;;5070343;28;20481;-72
2022/10/17 12:49:50;;;;;;;6.43;2.58;;;22.80;91.20;;;;;;5053098;28;20118;-73
2022/10/17 12:52:31;;;;;;;8.15;2.70;;;22.60;91.20;;;;;;5068188;28;20047;-72
2022/10/17 12:55:03;;;;;;;8.57;2.28;;;22.60;90.50;;;;;;5072471;28;20064;-72
2022/10/17 12:57:32;;;;;;;10.10;2.60;;;22.60;90.30;;;;;;5069328;28;20041;-73
2022/10/17 13:00:10;;;;;;;8.32;1.92;;;22.60;90.60;;;;;;5068766;28;20056;-72
2022/10/17 13:02:37;;;;;;;6.95;2.55;;;22.60;90.60;;;;;;5067731;28;20113;-72
2022/10/17 13:05:14;;;;;;;5.40;2.10;;;22.60;90.10;;;;;;5043841;28;20092;-73
2022/10/17 13:07:41;;;;;;;8.27;2.00;;;22.60;90.10;;;;;;5072342;28;20059;-72
2022/10/17 13:10:17;;;;;;;5.57;1.80;;;22.60;90.50;;;;;;5065793;28;20382;-71